KLRF/LRF METAR and TAF weather

Enter ICAO airport designator
Station Type Date Time Source
KLRF METAR 2022/05/26 04:56 UTC NOAA

KLRF 260456Z AUTO 24011KT 10SM BKN060 19/13 A2981 RMK AO2 SLP095 T01850133


Station Type Date Time Source
KLRF Decoded METAR 2022/05/26 04:56 UTC NOAA

Little Rock Air Force Base, AR, United States (KLRF) 34-55N 092-09W
May 26, 2022 - 12:56 AM EDT / 2022.05.26 0456 UTC
Wind: from the WSW (240 degrees) at 13 MPH (11 KT):0
Visibility: 10 mile(s):0
Sky conditions: mostly cloudy
Temperature: 65.3 F (18.5 C)
Dew Point: 55.9 F (13.3 C)
Relative Humidity: 71%
Pressure (altimeter): 29.81 in. Hg (1009 hPa)
ob: KLRF 260456Z AUTO 24011KT 10SM BKN060 19/13 A2981 RMK AO2 SLP095 T01850133
cycle: 5

Station Type Date Time Source
KLRF TAF 2022/05/26 00:54 UTC NOAA

TAF
AMD KLRF 260040Z 2600/2705 20009KT 9999 FEW040 QNH2971INS
TEMPO 2601/2602 21020G35KT 8000 -TSRA BKN030CB
BECMG 2613/2614 23015G20KT 9999 BKN020 OVC028 QNH2980INS
BECMG 2618/2619 26015G20KT 9999 SCT021 OVC028 QNH2979INS
BECMG 2620/2621 26020G25KT 9999 BKN035 OVC050 QNH2978INS
BECMG 2700/2701 26009KT 9999 SCT028 BKN040 OVC060 QNH2979INS
BECMG 2701/2702 26006KT 9999 BKN028 OVC040 QNH2981INS TX26/2600Z TN14/2611Z

Example: see airport list